sensor_id;sensor_type;location;lat;lon;timestamp;P1;durP1;ratioP1;P2;durP2;ratioP2
64291;SDS011;50628;51.008;13.658;2022-08-21T00:04:06;41.42;;;36.40;;
64291;SDS011;50628;51.008;13.658;2022-08-21T00:09:09;37.75;;;32.92;;
64291;SDS011;50628;51.008;13.658;2022-08-21T00:14:11;41.17;;;31.98;;
64291;SDS011;50628;51.008;13.658;2022-08-21T00:19:14;41.60;;;34.40;;
64291;SDS011;50628;51.008;13.658;2022-08-21T00:24:16;46.50;;;37.67;;
64291;SDS011;50628;51.008;13.658;2022-08-21T00:29:18;53.35;;;40.88;;
64291;SDS011;50628;51.008;13.658;2022-08-21T00:34:22;52.83;;;39.97;;
64291;SDS011;50628;51.008;13.658;2022-08-21T00:39:23;49.67;;;38.50;;
64291;SDS011;50628;51.008;13.658;2022-08-21T00:44:25;53.92;;;42.08;;
64291;SDS011;50628;51.008;13.658;2022-08-21T00:49:28;51.83;;;41.53;;
64291;SDS011;50628;51.008;13.658;2022-08-21T00:54:30;52.03;;;42.33;;
64291;SDS011;50628;51.008;13.658;2022-08-21T00:59:35;57.67;;;46.08;;
64291;SDS011;50628;51.008;13.658;2022-08-21T01:04:40;64.18;;;48.72;;
64291;SDS011;50628;51.008;13.658;2022-08-21T01:09:42;65.00;;;49.33;;
64291;SDS011;50628;51.008;13.658;2022-08-21T01:14:45;63.55;;;47.80;;
64291;SDS011;50628;51.008;13.658;2022-08-21T01:19:48;59.50;;;48.15;;
64291;SDS011;50628;51.008;13.658;2022-08-21T01:24:51;66.30;;;48.78;;
64291;SDS011;50628;51.008;13.658;2022-08-21T01:29:54;62.95;;;47.30;;
64291;SDS011;50628;51.008;13.658;2022-08-21T01:34:58;36.05;;;30.38;;
64291;SDS011;50628;51.008;13.658;2022-08-21T01:40:02;32.40;;;25.40;;
64291;SDS011;50628;51.008;13.658;2022-08-21T01:45:06;23.55;;;20.23;;
64291;SDS011;50628;51.008;13.658;2022-08-21T01:50:12;15.13;;;13.20;;
64291;SDS011;50628;51.008;13.658;2022-08-21T01:55:17;13.68;;;12.27;;
64291;SDS011;50628;51.008;13.658;2022-08-21T02:00:21;13.77;;;11.70;;
64291;SDS011;50628;51.008;13.658;2022-08-21T02:05:23;13.65;;;11.80;;
64291;SDS011;50628;51.008;13.658;2022-08-21T02:10:28;12.25;;;10.95;;
64291;SDS011;50628;51.008;13.658;2022-08-21T02:15:32;12.63;;;10.90;;
64291;SDS011;50628;51.008;13.658;2022-08-21T02:20:40;11.00;;;9.88;;
64291;SDS011;50628;51.008;13.658;2022-08-21T02:25:45;11.50;;;10.38;;
64291;SDS011;50628;51.008;13.658;2022-08-21T02:30:47;12.32;;;11.00;;
64291;SDS011;50628;51.008;13.658;2022-08-21T02:35:49;13.98;;;11.60;;
64291;SDS011;50628;51.008;13.658;2022-08-21T02:40:53;11.90;;;10.70;;
64291;SDS011;50628;51.008;13.658;2022-08-21T02:45:56;13.40;;;12.13;;
64291;SDS011;50628;51.008;13.658;2022-08-21T02:50:59;15.13;;;11.85;;
64291;SDS011;50628;51.008;13.658;2022-08-21T02:56:05;14.48;;;12.25;;
64291;SDS011;50628;51.008;13.658;2022-08-21T03:01:08;14.27;;;12.85;;
64291;SDS011;50628;51.008;13.658;2022-08-21T03:06:11;13.48;;;12.02;;
64291;SDS011;50628;51.008;13.658;2022-08-21T03:11:16;16.73;;;12.60;;
64291;SDS011;50628;51.008;13.658;2022-08-21T03:16:19;15.38;;;13.88;;
64291;SDS011;50628;51.008;13.658;2022-08-21T03:21:20;14.95;;;13.43;;
64291;SDS011;50628;51.008;13.658;2022-08-21T03:26:24;15.77;;;14.15;;
64291;SDS011;50628;51.008;13.658;2022-08-21T03:31:26;15.27;;;13.20;;
64291;SDS011;50628;51.008;13.658;2022-08-21T03:36:31;16.30;;;12.95;;
64291;SDS011;50628;51.008;13.658;2022-08-21T03:41:34;14.35;;;12.75;;
64291;SDS011;50628;51.008;13.658;2022-08-21T03:46:35;13.80;;;12.32;;
64291;SDS011;50628;51.008;13.658;2022-08-21T03:51:37;14.57;;;12.98;;
64291;SDS011;50628;51.008;13.658;2022-08-21T03:56:40;14.43;;;12.93;;
64291;SDS011;50628;51.008;13.658;2022-08-21T04:01:50;18.17;;;14.18;;
64291;SDS011;50628;51.008;13.658;2022-08-21T04:06:53;15.52;;;13.13;;
64291;SDS011;50628;51.008;13.658;2022-08-21T04:11:56;15.32;;;13.70;;
64291;SDS011;50628;51.008;13.658;2022-08-21T04:17:00;16.30;;;14.48;;
64291;SDS011;50628;51.008;13.658;2022-08-21T04:22:01;15.25;;;13.75;;
64291;SDS011;50628;51.008;13.658;2022-08-21T04:27:04;17.15;;;14.77;;
64291;SDS011;50628;51.008;13.658;2022-08-21T04:32:06;17.25;;;14.88;;
64291;SDS011;50628;51.008;13.658;2022-08-21T04:37:08;17.63;;;15.75;;
64291;SDS011;50628;51.008;13.658;2022-08-21T04:42:11;18.15;;;16.30;;
64291;SDS011;50628;51.008;13.658;2022-08-21T04:47:13;18.92;;;16.42;;
64291;SDS011;50628;51.008;13.658;2022-08-21T04:52:15;20.05;;;16.50;;
64291;SDS011;50628;51.008;13.658;2022-08-21T04:57:23;18.52;;;16.73;;
64291;SDS011;50628;51.008;13.658;2022-08-21T05:02:26;18.27;;;15.95;;
64291;SDS011;50628;51.008;13.658;2022-08-21T05:07:28;18.13;;;16.30;;
64291;SDS011;50628;51.008;13.658;2022-08-21T05:12:33;18.70;;;16.75;;
64291;SDS011;50628;51.008;13.658;2022-08-21T05:17:36;19.25;;;17.23;;
64291;SDS011;50628;51.008;13.658;2022-08-21T05:22:38;19.95;;;16.77;;
64291;SDS011;50628;51.008;13.658;2022-08-21T05:27:41;18.92;;;17.02;;
64291;SDS011;50628;51.008;13.658;2022-08-21T05:32:43;19.50;;;17.38;;
64291;SDS011;50628;51.008;13.658;2022-08-21T05:37:44;18.67;;;16.73;;
64291;SDS011;50628;51.008;13.658;2022-08-21T05:42:47;21.65;;;18.52;;
64291;SDS011;50628;51.008;13.658;2022-08-21T05:47:50;19.92;;;17.85;;
64291;SDS011;50628;51.008;13.658;2022-08-21T05:52:52;21.20;;;18.90;;
64291;SDS011;50628;51.008;13.658;2022-08-21T05:57:55;27.33;;;21.15;;
64291;SDS011;50628;51.008;13.658;2022-08-21T06:02:57;25.17;;;21.35;;
64291;SDS011;50628;51.008;13.658;2022-08-21T06:07:59;24.33;;;21.83;;
64291;SDS011;50628;51.008;13.658;2022-08-21T06:13:02;25.95;;;22.48;;
64291;SDS011;50628;51.008;13.658;2022-08-21T06:18:04;24.70;;;22.08;;
64291;SDS011;50628;51.008;13.658;2022-08-21T06:23:07;25.88;;;23.15;;
64291;SDS011;50628;51.008;13.658;2022-08-21T06:28:10;25.90;;;23.15;;
64291;SDS011;50628;51.008;13.658;2022-08-21T06:33:12;24.10;;;21.58;;
64291;SDS011;50628;51.008;13.658;2022-08-21T06:38:14;22.85;;;20.40;;
64291;SDS011;50628;51.008;13.658;2022-08-21T06:43:18;23.13;;;20.20;;
64291;SDS011;50628;51.008;13.658;2022-08-21T06:48:19;21.92;;;19.52;;
64291;SDS011;50628;51.008;13.658;2022-08-21T06:53:21;21.98;;;19.88;;
64291;SDS011;50628;51.008;13.658;2022-08-21T06:58:24;20.77;;;17.40;;
64291;SDS011;50628;51.008;13.658;2022-08-21T07:03:27;18.15;;;16.35;;
64291;SDS011;50628;51.008;13.658;2022-08-21T07:08:30;20.38;;;17.20;;
64291;SDS011;50628;51.008;13.658;2022-08-21T07:13:33;18.00;;;16.15;;
64291;SDS011;50628;51.008;13.658;2022-08-21T07:18:35;17.98;;;16.05;;
64291;SDS011;50628;51.008;13.658;2022-08-21T07:23:38;18.25;;;16.52;;
64291;SDS011;50628;51.008;13.658;2022-08-21T07:28:44;20.67;;;18.67;;
64291;SDS011;50628;51.008;13.658;2022-08-21T07:33:46;19.90;;;17.90;;
64291;SDS011;50628;51.008;13.658;2022-08-21T07:38:47;21.10;;;18.92;;
64291;SDS011;50628;51.008;13.658;2022-08-21T07:43:51;20.92;;;18.75;;
64291;SDS011;50628;51.008;13.658;2022-08-21T07:48:52;20.77;;;18.15;;
64291;SDS011;50628;51.008;13.658;2022-08-21T07:53:55;18.10;;;16.33;;
64291;SDS011;50628;51.008;13.658;2022-08-21T07:59:00;16.00;;;14.35;;
64291;SDS011;50628;51.008;13.658;2022-08-21T08:04:03;15.77;;;14.32;;
64291;SDS011;50628;51.008;13.658;2022-08-21T08:09:04;17.05;;;15.05;;
64291;SDS011;50628;51.008;13.658;2022-08-21T08:14:07;17.65;;;15.15;;
64291;SDS011;50628;51.008;13.658;2022-08-21T08:19:09;17.50;;;14.75;;
64291;SDS011;50628;51.008;13.658;2022-08-21T08:24:11;15.30;;;13.90;;
64291;SDS011;50628;51.008;13.658;2022-08-21T08:29:14;32.40;;;15.73;;
64291;SDS011;50628;51.008;13.658;2022-08-21T08:34:17;28.38;;;21.27;;
64291;SDS011;50628;51.008;13.658;2022-08-21T08:39:19;66.57;;;56.00;;
64291;SDS011;50628;51.008;13.658;2022-08-21T08:44:22;35.10;;;31.00;;
64291;SDS011;50628;51.008;13.658;2022-08-21T08:49:27;23.05;;;20.58;;
64291;SDS011;50628;51.008;13.658;2022-08-21T08:54:39;13.70;;;10.85;;
64291;SDS011;50628;51.008;13.658;2022-08-21T08:59:48;11.60;;;8.25;;
64291;SDS011;50628;51.008;13.658;2022-08-21T09:04:52;10.35;;;7.07;;
64291;SDS011;50628;51.008;13.658;2022-08-21T09:09:58;8.70;;;5.80;;
64291;SDS011;50628;51.008;13.658;2022-08-21T09:15:12;9.77;;;5.90;;
64291;SDS011;50628;51.008;13.658;2022-08-21T09:20:23;10.55;;;6.65;;
64291;SDS011;50628;51.008;13.658;2022-08-21T09:25:42;8.95;;;5.38;;
64291;SDS011;50628;51.008;13.658;2022-08-21T09:30:55;6.07;;;3.60;;
64291;SDS011;50628;51.008;13.658;2022-08-21T09:36:02;4.88;;;2.63;;
64291;SDS011;50628;51.008;13.658;2022-08-21T09:41:06;8.48;;;2.97;;
64291;SDS011;50628;51.008;13.658;2022-08-21T09:46:12;4.10;;;2.30;;
64291;SDS011;50628;51.008;13.658;2022-08-21T09:51:22;7.60;;;2.72;;
64291;SDS011;50628;51.008;13.658;2022-08-21T09:56:27;5.82;;;2.83;;
64291;SDS011;50628;51.008;13.658;2022-08-21T10:01:52;5.10;;;2.00;;
64291;SDS011;50628;51.008;13.658;2022-08-21T10:07:05;4.97;;;2.85;;
64291;SDS011;50628;51.008;13.658;2022-08-21T10:12:17;18.83;;;13.45;;
64291;SDS011;50628;51.008;13.658;2022-08-21T10:17:26;8.15;;;4.82;;
64291;SDS011;50628;51.008;13.658;2022-08-21T10:22:33;8.50;;;3.92;;
64291;SDS011;50628;51.008;13.658;2022-08-21T10:27:42;6.07;;;1.85;;
64291;SDS011;50628;51.008;13.658;2022-08-21T10:33:00;7.80;;;2.58;;
64291;SDS011;50628;51.008;13.658;2022-08-21T10:43:44;2.60;;;1.70;;
64291;SDS011;50628;51.008;13.658;2022-08-21T10:48:55;5.65;;;1.73;;
64291;SDS011;50628;51.008;13.658;2022-08-21T10:54:01;6.50;;;2.38;;
64291;SDS011;50628;51.008;13.658;2022-08-21T10:59:15;9.75;;;2.17;;
64291;SDS011;50628;51.008;13.658;2022-08-21T11:04:28;4.13;;;2.33;;
64291;SDS011;50628;51.008;13.658;2022-08-21T11:09:33;7.05;;;2.83;;
64291;SDS011;50628;51.008;13.658;2022-08-21T11:14:37;5.07;;;1.80;;
64291;SDS011;50628;51.008;13.658;2022-08-21T11:19:50;13.07;;;7.10;;
64291;SDS011;50628;51.008;13.658;2022-08-21T11:24:59;4.82;;;1.52;;
64291;SDS011;50628;51.008;13.658;2022-08-21T11:30:05;3.97;;;1.55;;
64291;SDS011;50628;51.008;13.658;2022-08-21T11:35:10;5.40;;;1.42;;
64291;SDS011;50628;51.008;13.658;2022-08-21T11:40:33;5.50;;;1.70;;
64291;SDS011;50628;51.008;13.658;2022-08-21T11:45:49;5.32;;;2.40;;
64291;SDS011;50628;51.008;13.658;2022-08-21T11:50:53;4.32;;;1.50;;
64291;SDS011;50628;51.008;13.658;2022-08-21T11:55:58;6.13;;;1.55;;
64291;SDS011;50628;51.008;13.658;2022-08-21T12:01:06;10.20;;;1.80;;
64291;SDS011;50628;51.008;13.658;2022-08-21T12:06:13;3.97;;;1.40;;
64291;SDS011;50628;51.008;13.658;2022-08-21T12:11:22;8.07;;;1.52;;
64291;SDS011;50628;51.008;13.658;2022-08-21T12:16:29;5.80;;;1.42;;
64291;SDS011;50628;51.008;13.658;2022-08-21T12:21:34;8.15;;;1.50;;
64291;SDS011;50628;51.008;13.658;2022-08-21T12:26:51;9.18;;;1.58;;
64291;SDS011;50628;51.008;13.658;2022-08-21T12:31:58;6.70;;;1.30;;
64291;SDS011;50628;51.008;13.658;2022-08-21T12:37:04;7.82;;;2.53;;
64291;SDS011;50628;51.008;13.658;2022-08-21T12:42:11;6.43;;;1.42;;
64291;SDS011;50628;51.008;13.658;2022-08-21T12:47:21;7.38;;;1.75;;
64291;SDS011;50628;51.008;13.658;2022-08-21T12:52:30;4.30;;;1.30;;
64291;SDS011;50628;51.008;13.658;2022-08-21T12:57:35;7.30;;;1.42;;
64291;SDS011;50628;51.008;13.658;2022-08-21T13:02:38;6.30;;;1.38;;
64291;SDS011;50628;51.008;13.658;2022-08-21T13:07:48;7.85;;;1.63;;
64291;SDS011;50628;51.008;13.658;2022-08-21T13:12:51;7.28;;;1.42;;
64291;SDS011;50628;51.008;13.658;2022-08-21T13:17:55;4.10;;;1.20;;
64291;SDS011;50628;51.008;13.658;2022-08-21T13:23:06;3.75;;;1.15;;
64291;SDS011;50628;51.008;13.658;2022-08-21T13:28:09;4.82;;;1.30;;
64291;SDS011;50628;51.008;13.658;2022-08-21T13:33:16;6.38;;;1.27;;
64291;SDS011;50628;51.008;13.658;2022-08-21T13:38:22;8.32;;;1.33;;
64291;SDS011;50628;51.008;13.658;2022-08-21T13:43:28;5.00;;;1.25;;
64291;SDS011;50628;51.008;13.658;2022-08-21T13:48:33;8.70;;;2.17;;
64291;SDS011;50628;51.008;13.658;2022-08-21T13:53:43;6.22;;;1.23;;
64291;SDS011;50628;51.008;13.658;2022-08-21T13:58:47;9.48;;;1.30;;
64291;SDS011;50628;51.008;13.658;2022-08-21T14:03:49;5.45;;;1.30;;
64291;SDS011;50628;51.008;13.658;2022-08-21T14:08:56;6.25;;;1.17;;
64291;SDS011;50628;51.008;13.658;2022-08-21T14:14:03;5.65;;;1.60;;
64291;SDS011;50628;51.008;13.658;2022-08-21T14:19:09;3.53;;;0.88;;
64291;SDS011;50628;51.008;13.658;2022-08-21T14:24:14;8.50;;;1.23;;
64291;SDS011;50628;51.008;13.658;2022-08-21T14:29:28;3.65;;;1.02;;
64291;SDS011;50628;51.008;13.658;2022-08-21T14:34:34;4.88;;;0.90;;
64291;SDS011;50628;51.008;13.658;2022-08-21T14:39:38;9.48;;;0.93;;
64291;SDS011;50628;51.008;13.658;2022-08-21T14:44:39;4.40;;;1.05;;
64291;SDS011;50628;51.008;13.658;2022-08-21T14:49:41;5.97;;;1.23;;
64291;SDS011;50628;51.008;13.658;2022-08-21T14:54:44;6.25;;;1.08;;
64291;SDS011;50628;51.008;13.658;2022-08-21T14:59:46;8.90;;;1.10;;
64291;SDS011;50628;51.008;13.658;2022-08-21T15:04:48;4.50;;;1.17;;
64291;SDS011;50628;51.008;13.658;2022-08-21T15:09:51;9.35;;;0.90;;
64291;SDS011;50628;51.008;13.658;2022-08-21T15:14:53;10.95;;;1.52;;
64291;SDS011;50628;51.008;13.658;2022-08-21T15:19:55;3.88;;;0.70;;
64291;SDS011;50628;51.008;13.658;2022-08-21T15:24:58;7.13;;;1.25;;
64291;SDS011;50628;51.008;13.658;2022-08-21T15:30:01;5.00;;;1.70;;
64291;SDS011;50628;51.008;13.658;2022-08-21T15:35:03;4.22;;;1.00;;
64291;SDS011;50628;51.008;13.658;2022-08-21T15:40:08;2.45;;;0.88;;
64291;SDS011;50628;51.008;13.658;2022-08-21T15:45:11;3.92;;;0.80;;
64291;SDS011;50628;51.008;13.658;2022-08-21T15:50:14;2.33;;;1.00;;
64291;SDS011;50628;51.008;13.658;2022-08-21T15:55:18;4.50;;;0.95;;
64291;SDS011;50628;51.008;13.658;2022-08-21T16:00:20;3.00;;;0.95;;
64291;SDS011;50628;51.008;13.658;2022-08-21T16:05:24;6.10;;;1.23;;
64291;SDS011;50628;51.008;13.658;2022-08-21T16:10:28;5.22;;;0.90;;
64291;SDS011;50628;51.008;13.658;2022-08-21T16:15:30;5.65;;;1.00;;
64291;SDS011;50628;51.008;13.658;2022-08-21T16:20:32;3.22;;;1.40;;
64291;SDS011;50628;51.008;13.658;2022-08-21T16:25:36;2.55;;;0.93;;
64291;SDS011;50628;51.008;13.658;2022-08-21T16:30:39;6.22;;;1.08;;
64291;SDS011;50628;51.008;13.658;2022-08-21T16:35:41;2.75;;;1.00;;
64291;SDS011;50628;51.008;13.658;2022-08-21T16:40:45;2.35;;;0.77;;
64291;SDS011;50628;51.008;13.658;2022-08-21T16:45:46;4.38;;;0.95;;
64291;SDS011;50628;51.008;13.658;2022-08-21T16:50:48;4.88;;;0.82;;
64291;SDS011;50628;51.008;13.658;2022-08-21T16:55:52;3.60;;;0.93;;
64291;SDS011;50628;51.008;13.658;2022-08-21T17:00:54;5.43;;;1.05;;
64291;SDS011;50628;51.008;13.658;2022-08-21T17:05:56;3.42;;;1.27;;
64291;SDS011;50628;51.008;13.658;2022-08-21T17:11:00;5.15;;;0.88;;
64291;SDS011;50628;51.008;13.658;2022-08-21T17:16:03;7.97;;;1.20;;
64291;SDS011;50628;51.008;13.658;2022-08-21T17:21:04;2.50;;;1.05;;
64291;SDS011;50628;51.008;13.658;2022-08-21T17:26:08;6.50;;;1.13;;
64291;SDS011;50628;51.008;13.658;2022-08-21T17:31:09;3.78;;;1.02;;
64291;SDS011;50628;51.008;13.658;2022-08-21T17:36:13;5.00;;;1.33;;
64291;SDS011;50628;51.008;13.658;2022-08-21T17:41:16;4.07;;;1.60;;
64291;SDS011;50628;51.008;13.658;2022-08-21T17:46:20;3.75;;;1.05;;
64291;SDS011;50628;51.008;13.658;2022-08-21T17:51:24;3.08;;;1.25;;
64291;SDS011;50628;51.008;13.658;2022-08-21T17:56:27;8.68;;;1.33;;
64291;SDS011;50628;51.008;13.658;2022-08-21T18:01:31;6.32;;;1.25;;
64291;SDS011;50628;51.008;13.658;2022-08-21T18:06:35;5.00;;;1.33;;
64291;SDS011;50628;51.008;13.658;2022-08-21T18:11:39;5.60;;;1.58;;
64291;SDS011;50628;51.008;13.658;2022-08-21T18:16:43;10.52;;;2.10;;
64291;SDS011;50628;51.008;13.658;2022-08-21T18:21:44;6.00;;;1.98;;
64291;SDS011;50628;51.008;13.658;2022-08-21T18:26:48;5.32;;;2.40;;
64291;SDS011;50628;51.008;13.658;2022-08-21T18:31:51;6.28;;;2.25;;
64291;SDS011;50628;51.008;13.658;2022-08-21T18:36:53;10.55;;;2.33;;
64291;SDS011;50628;51.008;13.658;2022-08-21T18:41:57;4.65;;;2.03;;
64291;SDS011;50628;51.008;13.658;2022-08-21T18:47:02;3.75;;;1.90;;
64291;SDS011;50628;51.008;13.658;2022-08-21T18:52:05;6.35;;;1.73;;
64291;SDS011;50628;51.008;13.658;2022-08-21T18:57:09;6.95;;;2.20;;
64291;SDS011;50628;51.008;13.658;2022-08-21T19:02:11;5.60;;;1.77;;
64291;SDS011;50628;51.008;13.658;2022-08-21T19:07:14;6.05;;;2.10;;
64291;SDS011;50628;51.008;13.658;2022-08-21T19:12:19;7.10;;;2.58;;
64291;SDS011;50628;51.008;13.658;2022-08-21T19:17:24;13.00;;;6.90;;
64291;SDS011;50628;51.008;13.658;2022-08-21T19:22:27;17.55;;;9.18;;
64291;SDS011;50628;51.008;13.658;2022-08-21T19:27:30;10.02;;;4.78;;
64291;SDS011;50628;51.008;13.658;2022-08-21T19:32:32;5.95;;;3.03;;
64291;SDS011;50628;51.008;13.658;2022-08-21T19:37:34;13.55;;;6.88;;
64291;SDS011;50628;51.008;13.658;2022-08-21T19:42:38;4.88;;;1.90;;
64291;SDS011;50628;51.008;13.658;2022-08-21T19:47:41;14.23;;;7.45;;
64291;SDS011;50628;51.008;13.658;2022-08-21T19:52:46;6.95;;;2.30;;
64291;SDS011;50628;51.008;13.658;2022-08-21T19:57:51;2.67;;;1.52;;
64291;SDS011;50628;51.008;13.658;2022-08-21T20:02:53;6.70;;;1.73;;
64291;SDS011;50628;51.008;13.658;2022-08-21T20:07:56;8.70;;;1.83;;
64291;SDS011;50628;51.008;13.658;2022-08-21T20:12:59;7.13;;;2.20;;
64291;SDS011;50628;51.008;13.658;2022-08-21T20:18:02;4.25;;;1.42;;
64291;SDS011;50628;51.008;13.658;2022-08-21T20:23:04;6.60;;;2.30;;
64291;SDS011;50628;51.008;13.658;2022-08-21T20:28:11;8.82;;;2.25;;
64291;SDS011;50628;51.008;13.658;2022-08-21T20:33:13;3.03;;;1.80;;
64291;SDS011;50628;51.008;13.658;2022-08-21T20:38:18;5.95;;;1.70;;
64291;SDS011;50628;51.008;13.658;2022-08-21T20:43:22;6.60;;;2.67;;
64291;SDS011;50628;51.008;13.658;2022-08-21T20:48:26;3.03;;;2.00;;
64291;SDS011;50628;51.008;13.658;2022-08-21T20:53:33;5.63;;;2.03;;
64291;SDS011;50628;51.008;13.658;2022-08-21T20:58:39;4.20;;;2.22;;
64291;SDS011;50628;51.008;13.658;2022-08-21T21:03:46;7.45;;;2.40;;
64291;SDS011;50628;51.008;13.658;2022-08-21T21:08:58;4.70;;;1.90;;
64291;SDS011;50628;51.008;13.658;2022-08-21T21:14:09;4.63;;;2.30;;
64291;SDS011;50628;51.008;13.658;2022-08-21T21:19:17;8.47;;;1.93;;
64291;SDS011;50628;51.008;13.658;2022-08-21T21:24:27;6.68;;;2.22;;
64291;SDS011;50628;51.008;13.658;2022-08-21T21:29:38;7.43;;;2.50;;
64291;SDS011;50628;51.008;13.658;2022-08-21T21:34:44;6.20;;;2.43;;
64291;SDS011;50628;51.008;13.658;2022-08-21T21:39:49;9.27;;;2.53;;
64291;SDS011;50628;51.008;13.658;2022-08-21T21:45:00;7.33;;;2.70;;
64291;SDS011;50628;51.008;13.658;2022-08-21T21:50:15;11.67;;;2.50;;
64291;SDS011;50628;51.008;13.658;2022-08-21T21:55:32;6.63;;;2.50;;
64291;SDS011;50628;51.008;13.658;2022-08-21T22:00:46;4.77;;;2.20;;
64291;SDS011;50628;51.008;13.658;2022-08-21T22:05:55;7.47;;;3.13;;
64291;SDS011;50628;51.008;13.658;2022-08-21T22:11:07;8.80;;;2.73;;
64291;SDS011;50628;51.008;13.658;2022-08-21T22:16:18;6.50;;;2.67;;
64291;SDS011;50628;51.008;13.658;2022-08-21T22:21:22;5.00;;;2.50;;
64291;SDS011;50628;51.008;13.658;2022-08-21T22:26:33;6.97;;;2.67;;
64291;SDS011;50628;51.008;13.658;2022-08-21T22:31:39;5.57;;;2.63;;
64291;SDS011;50628;51.008;13.658;2022-08-21T22:36:43;7.27;;;2.90;;
64291;SDS011;50628;51.008;13.658;2022-08-21T22:41:50;7.03;;;2.93;;
64291;SDS011;50628;51.008;13.658;2022-08-21T22:46:54;6.03;;;2.90;;
64291;SDS011;50628;51.008;13.658;2022-08-21T22:52:06;5.20;;;2.43;;
64291;SDS011;50628;51.008;13.658;2022-08-21T22:57:11;5.30;;;3.00;;
64291;SDS011;50628;51.008;13.658;2022-08-21T23:02:30;5.77;;;2.40;;
64291;SDS011;50628;51.008;13.658;2022-08-21T23:07:36;5.90;;;2.30;;
64291;SDS011;50628;51.008;13.658;2022-08-21T23:12:42;5.10;;;2.40;;
64291;SDS011;50628;51.008;13.658;2022-08-21T23:17:52;9.10;;;2.97;;
64291;SDS011;50628;51.008;13.658;2022-08-21T23:23:05;5.53;;;2.63;;
64291;SDS011;50628;51.008;13.658;2022-08-21T23:28:15;7.90;;;2.73;;
64291;SDS011;50628;51.008;13.658;2022-08-21T23:33:30;7.97;;;2.53;;
64291;SDS011;50628;51.008;13.658;2022-08-21T23:38:51;7.07;;;2.60;;
64291;SDS011;50628;51.008;13.658;2022-08-21T23:44:05;5.97;;;2.13;;
64291;SDS011;50628;51.008;13.658;2022-08-21T23:49:23;3.43;;;2.40;;
64291;SDS011;50628;51.008;13.658;2022-08-21T23:54:38;6.43;;;2.33;;
64291;SDS011;50628;51.008;13.658;2022-08-21T23:59:54;8.67;;;2.67;;
